Jacobabad, Pakistan

6:37 AM PKT on March 29, 2015 (GMT +0500)
Sukkur | | Change Station
CLOSE
Current Station
Airport
Location: Sukkur,
Elevation: 197 ft
Nearby Weather Stations

Elev 197 ft 27.72 °N, 68.79 °E | Updated 37 minutes ago

Haze
Haze
73 °F
Feels Like 73 °F
N
7
Wind Variable Wind from South

Today
High -- | Low -- °F
--% Chance of Precip.
Yesterday
High -- | Low -- °F
Precip. -- in
6:20 AM 6:42 PM
Waxing Gibbous, 67% visible
Pressure 29.65 in
Visibility 1.2 miles
Clouds Scattered Clouds 4000 ft
Scattered Clouds 10000 ft
Dew Point 63 °F
Humidity 69%
Rainfall 0.00 in
Snow Depth Not available.
UV 0 out of 12
Pollen Not available.
Air Quality Not available.
Flu Activity Not available.
METAR OPSK 290100Z 18006KT 2000 HZ SCT040 SCT100 23/17 Q1004 RH.71 PC

More Conditions Fewer Conditions

Pressure 29.65 in
Visibility 1.2 miles
Clouds Scattered Clouds 4000 ft
Scattered Clouds 10000 ft
Dew Point 63 °F
Humidity 69%
Rainfall 0.00 in
Snow Depth Not available.
UV 0 out of 12
Pollen Not available.
Air Quality Not available.
Flu Activity Not available.
METAR OPSK 290100Z 18006KT 2000 HZ SCT040 SCT100 23/17 Q1004 RH.71 PC

More Conditions Fewer Conditions

10-Day Weather Forecast

Almanac

Astronomy

Mar. 29, 2015 Rise Set
Actual Time
Civil Twilight
Nautical Twilight
Astronomical Twilight
Moon
Length of Visible Light
Length of Day
Tomorrow will be .
, % of the Moon is Illuminated

Today's Extremes

Country Highs Country Lows

Community

WunderPhotos

Upload Photos

1,809,150 photos uploaded!

WunderBlogs® & News

Nearby

Air Quality

  Air Quality AQ Index Pollutant
Not available.

Snow Depth

Station Depth Elevation

Earthquake Activity

City Distance Mag. Time & Date
Minimum magnitude displayed is 2.5.

Coastal Water Temperatures

Place Temperature

Stations

Nearby Weather Stations

Station Location Temp. Windchill Dew Point Humidity Wind Precip. Elev Updated Type